sensor_id;sensor_type;location;lat;lon;timestamp;noise_LAeq;noise_LA_min;noise_LA_max;noise_LA01;noise_LA95
69608;Laerm;57251;52.248;4.812;2023-03-01T00:00:04;36.98;33.83;40.11;;
69608;Laerm;57251;52.248;4.812;2023-03-01T00:00:15;35.16;33.19;38.36;;
69608;Laerm;57251;52.248;4.812;2023-03-01T00:00:31;35.62;32.95;41.10;;
69608;Laerm;57251;52.248;4.812;2023-03-01T00:00:41;36.99;32.79;43.59;;
69608;Laerm;57251;52.248;4.812;2023-03-01T00:01:03;35.48;32.88;41.20;;
69608;Laerm;57251;52.248;4.812;2023-03-01T00:01:18;34.72;32.87;38.40;;
69608;Laerm;57251;52.248;4.812;2023-03-01T00:01:30;34.57;33.03;36.54;;
69608;Laerm;57251;52.248;4.812;2023-03-01T00:01:40;36.03;33.64;38.24;;
69608;Laerm;57251;52.248;4.812;2023-03-01T00:01:51;36.96;33.78;40.84;;
69608;Laerm;57251;52.248;4.812;2023-03-01T00:02:01;37.17;33.63;41.83;;
69608;Laerm;57251;52.248;4.812;2023-03-01T00:02:12;37.26;34.29;40.02;;
69608;Laerm;57251;52.248;4.812;2023-03-01T00:02:22;37.34;34.90;41.22;;
69608;Laerm;57251;52.248;4.812;2023-03-01T00:02:32;37.00;34.50;41.07;;
69608;Laerm;57251;52.248;4.812;2023-03-01T00:02:43;39.06;34.78;45.49;;
69608;Laerm;57251;52.248;4.812;2023-03-01T00:02:53;35.91;33.77;38.08;;
69608;Laerm;57251;52.248;4.812;2023-03-01T00:03:03;38.05;35.14;43.29;;
69608;Laerm;57251;52.248;4.812;2023-03-01T00:03:14;38.19;35.27;42.40;;
69608;Laerm;57251;52.248;4.812;2023-03-01T00:03:24;37.86;34.11;41.72;;
69608;Laerm;57251;52.248;4.812;2023-03-01T00:03:35;39.01;35.71;45.15;;
69608;Laerm;57251;52.248;4.812;2023-03-01T00:03:45;41.09;36.27;49.16;;
69608;Laerm;57251;52.248;4.812;2023-03-01T00:03:56;39.35;35.95;42.64;;
69608;Laerm;57251;52.248;4.812;2023-03-01T00:04:06;36.69;33.61;40.44;;
69608;Laerm;57251;52.248;4.812;2023-03-01T00:04:17;36.12;34.08;38.64;;
69608;Laerm;57251;52.248;4.812;2023-03-01T00:04:27;37.27;33.72;42.20;;
69608;Laerm;57251;52.248;4.812;2023-03-01T00:04:38;37.13;33.92;41.67;;
69608;Laerm;57251;52.248;4.812;2023-03-01T00:04:48;36.01;34.05;38.27;;
69608;Laerm;57251;52.248;4.812;2023-03-01T00:04:58;35.28;32.87;37.56;;
69608;Laerm;57251;52.248;4.812;2023-03-01T00:05:08;36.12;33.68;39.88;;
69608;Laerm;57251;52.248;4.812;2023-03-01T00:05:19;37.59;33.89;44.32;;
69608;Laerm;57251;52.248;4.812;2023-03-01T00:05:29;35.76;33.43;38.43;;
69608;Laerm;57251;52.248;4.812;2023-03-01T00:05:45;36.54;34.19;40.75;;
69608;Laerm;57251;52.248;4.812;2023-03-01T00:05:56;35.09;32.65;39.87;;
69608;Laerm;57251;52.248;4.812;2023-03-01T00:06:06;33.97;31.84;36.04;;
69608;Laerm;57251;52.248;4.812;2023-03-01T00:06:16;35.23;33.16;39.22;;
69608;Laerm;57251;52.248;4.812;2023-03-01T00:06:27;34.13;31.93;36.70;;
69608;Laerm;57251;52.248;4.812;2023-03-01T00:06:37;34.14;32.35;36.39;;
69608;Laerm;57251;52.248;4.812;2023-03-01T00:06:48;34.40;32.60;37.55;;
69608;Laerm;57251;52.248;4.812;2023-03-01T00:06:58;34.46;31.94;37.07;;
69608;Laerm;57251;52.248;4.812;2023-03-01T00:07:08;34.73;32.74;36.80;;
69608;Laerm;57251;52.248;4.812;2023-03-01T00:07:19;34.05;32.57;35.91;;
69608;Laerm;57251;52.248;4.812;2023-03-01T00:07:29;35.19;33.04;37.29;;
69608;Laerm;57251;52.248;4.812;2023-03-01T00:07:39;35.54;32.64;53.04;;
69608;Laerm;57251;52.248;4.812;2023-03-01T00:07:52;35.24;33.50;37.29;;
69608;Laerm;57251;52.248;4.812;2023-03-01T00:08:02;35.58;33.21;37.68;;
69608;Laerm;57251;52.248;4.812;2023-03-01T00:08:13;35.09;32.94;37.04;;
69608;Laerm;57251;52.248;4.812;2023-03-01T00:08:23;36.01;34.06;38.03;;
69608;Laerm;57251;52.248;4.812;2023-03-01T00:08:34;37.18;35.11;39.45;;
69608;Laerm;57251;52.248;4.812;2023-03-01T00:08:44;36.21;34.01;39.83;;
69608;Laerm;57251;52.248;4.812;2023-03-01T00:08:55;37.16;33.91;41.57;;
69608;Laerm;57251;52.248;4.812;2023-03-01T00:09:05;36.21;33.84;38.50;;
69608;Laerm;57251;52.248;4.812;2023-03-01T00:09:16;35.43;33.28;38.41;;
69608;Laerm;57251;52.248;4.812;2023-03-01T00:09:27;35.14;32.96;37.87;;
69608;Laerm;57251;52.248;4.812;2023-03-01T00:09:37;35.02;32.91;37.51;;
69608;Laerm;57251;52.248;4.812;2023-03-01T00:09:48;33.96;32.10;36.73;;
69608;Laerm;57251;52.248;4.812;2023-03-01T00:09:59;34.57;33.08;36.22;;
69608;Laerm;57251;52.248;4.812;2023-03-01T00:10:09;34.14;32.01;36.09;;
69608;Laerm;57251;52.248;4.812;2023-03-01T00:10:20;33.91;32.38;35.77;;
69608;Laerm;57251;52.248;4.812;2023-03-01T00:10:30;34.14;32.81;36.61;;
69608;Laerm;57251;52.248;4.812;2023-03-01T00:10:40;34.23;32.02;36.41;;
69608;Laerm;57251;52.248;4.812;2023-03-01T00:11:01;33.93;32.36;36.26;;
69608;Laerm;57251;52.248;4.812;2023-03-01T00:11:16;34.30;32.45;36.29;;
69608;Laerm;57251;52.248;4.812;2023-03-01T00:11:28;34.04;32.61;36.31;;
69608;Laerm;57251;52.248;4.812;2023-03-01T00:11:39;34.49;32.43;36.82;;
69608;Laerm;57251;52.248;4.812;2023-03-01T00:11:49;33.87;32.32;36.20;;
69608;Laerm;57251;52.248;4.812;2023-03-01T00:12:00;35.57;33.05;38.90;;
69608;Laerm;57251;52.248;4.812;2023-03-01T00:12:10;35.40;32.70;38.05;;
69608;Laerm;57251;52.248;4.812;2023-03-01T00:12:21;35.41;33.13;37.97;;
69608;Laerm;57251;52.248;4.812;2023-03-01T00:12:32;37.66;33.84;41.75;;
69608;Laerm;57251;52.248;4.812;2023-03-01T00:12:42;36.61;33.46;40.44;;
69608;Laerm;57251;52.248;4.812;2023-03-01T00:12:52;35.88;32.55;39.49;;
69608;Laerm;57251;52.248;4.812;2023-03-01T00:13:03;35.51;33.26;38.43;;
69608;Laerm;57251;52.248;4.812;2023-03-01T00:13:15;36.09;33.66;38.63;;
69608;Laerm;57251;52.248;4.812;2023-03-01T00:13:25;36.07;33.86;39.75;;
69608;Laerm;57251;52.248;4.812;2023-03-01T00:13:36;35.62;33.40;38.65;;
69608;Laerm;57251;52.248;4.812;2023-03-01T00:13:47;36.39;34.00;39.75;;
69608;Laerm;57251;52.248;4.812;2023-03-01T00:13:59;36.47;33.61;39.61;;
69608;Laerm;57251;52.248;4.812;2023-03-01T00:14:10;36.23;33.81;39.38;;
69608;Laerm;57251;52.248;4.812;2023-03-01T00:14:21;35.53;33.20;38.19;;
69608;Laerm;57251;52.248;4.812;2023-03-01T00:14:31;36.42;33.93;38.76;;
69608;Laerm;57251;52.248;4.812;2023-03-01T00:14:42;35.07;32.72;40.12;;
69608;Laerm;57251;52.248;4.812;2023-03-01T00:14:52;34.51;31.91;37.05;;
69608;Laerm;57251;52.248;4.812;2023-03-01T00:15:02;33.76;31.82;37.62;;
69608;Laerm;57251;52.248;4.812;2023-03-01T00:15:14;33.06;31.29;36.13;;
69608;Laerm;57251;52.248;4.812;2023-03-01T00:15:25;33.43;31.97;38.83;;
69608;Laerm;57251;52.248;4.812;2023-03-01T00:15:37;33.52;31.51;37.74;;
69608;Laerm;57251;52.248;4.812;2023-03-01T00:15:48;33.60;31.79;37.20;;
69608;Laerm;57251;52.248;4.812;2023-03-01T00:15:58;35.37;31.74;40.18;;
69608;Laerm;57251;52.248;4.812;2023-03-01T00:16:10;33.24;31.97;36.06;;
69608;Laerm;57251;52.248;4.812;2023-03-01T00:16:29;33.73;32.09;36.32;;
69608;Laerm;57251;52.248;4.812;2023-03-01T00:16:40;34.05;31.76;36.60;;
69608;Laerm;57251;52.248;4.812;2023-03-01T00:16:51;33.62;31.96;35.29;;
69608;Laerm;57251;52.248;4.812;2023-03-01T00:17:01;33.97;32.23;37.73;;
69608;Laerm;57251;52.248;4.812;2023-03-01T00:17:11;33.51;31.71;36.42;;
69608;Laerm;57251;52.248;4.812;2023-03-01T00:17:22;33.53;31.88;35.37;;
69608;Laerm;57251;52.248;4.812;2023-03-01T00:17:32;33.61;31.58;39.78;;
69608;Laerm;57251;52.248;4.812;2023-03-01T00:17:43;33.74;31.56;36.61;;
69608;Laerm;57251;52.248;4.812;2023-03-01T00:17:53;33.07;31.34;35.50;;
69608;Laerm;57251;52.248;4.812;2023-03-01T00:18:04;33.36;31.91;35.09;;
69608;Laerm;57251;52.248;4.812;2023-03-01T00:18:14;33.41;31.30;35.49;;
69608;Laerm;57251;52.248;4.812;2023-03-01T00:18:25;33.51;31.92;35.76;;
69608;Laerm;57251;52.248;4.812;2023-03-01T00:18:35;34.20;32.15;37.42;;
69608;Laerm;57251;52.248;4.812;2023-03-01T00:18:46;36.37;33.30;40.87;;
69608;Laerm;57251;52.248;4.812;2023-03-01T00:18:56;34.58;32.63;37.03;;
69608;Laerm;57251;52.248;4.812;2023-03-01T00:19:08;37.26;34.06;42.19;;
69608;Laerm;57251;52.248;4.812;2023-03-01T00:19:19;37.42;34.15;40.83;;
69608;Laerm;57251;52.248;4.812;2023-03-01T00:19:31;37.45;34.87;40.58;;
69608;Laerm;57251;52.248;4.812;2023-03-01T00:19:42;35.95;33.49;38.20;;
69608;Laerm;57251;52.248;4.812;2023-03-01T00:19:52;37.80;35.49;40.45;;
69608;Laerm;57251;52.248;4.812;2023-03-01T00:20:03;37.60;34.66;41.08;;
69608;Laerm;57251;52.248;4.812;2023-03-01T00:20:17;37.08;33.72;40.07;;
69608;Laerm;57251;52.248;4.812;2023-03-01T00:20:31;35.50;33.48;37.66;;
69608;Laerm;57251;52.248;4.812;2023-03-01T00:20:41;35.97;34.23;37.77;;
69608;Laerm;57251;52.248;4.812;2023-03-01T00:20:52;37.34;35.24;40.21;;
69608;Laerm;57251;52.248;4.812;2023-03-01T00:21:03;37.41;34.16;40.19;;
69608;Laerm;57251;52.248;4.812;2023-03-01T00:21:13;37.13;34.50;39.67;;
69608;Laerm;57251;52.248;4.812;2023-03-01T00:21:23;38.00;35.53;40.23;;
69608;Laerm;57251;52.248;4.812;2023-03-01T00:21:34;36.42;33.62;38.66;;
69608;Laerm;57251;52.248;4.812;2023-03-01T00:21:45;34.22;32.79;36.08;;
69608;Laerm;57251;52.248;4.812;2023-03-01T00:21:56;34.58;32.71;36.76;;
69608;Laerm;57251;52.248;4.812;2023-03-01T00:22:06;34.52;32.87;36.27;;
69608;Laerm;57251;52.248;4.812;2023-03-01T00:22:16;34.27;32.43;36.33;;
69608;Laerm;57251;52.248;4.812;2023-03-01T00:22:27;34.25;32.53;35.95;;
69608;Laerm;57251;52.248;4.812;2023-03-01T00:22:38;34.40;32.31;36.49;;
69608;Laerm;57251;52.248;4.812;2023-03-01T00:22:48;33.72;32.27;35.64;;
69608;Laerm;57251;52.248;4.812;2023-03-01T00:22:59;34.56;32.38;36.95;;
69608;Laerm;57251;52.248;4.812;2023-03-01T00:23:09;36.71;34.15;40.29;;
69608;Laerm;57251;52.248;4.812;2023-03-01T00:23:19;37.92;35.19;40.79;;
69608;Laerm;57251;52.248;4.812;2023-03-01T00:23:30;39.77;35.24;44.58;;
69608;Laerm;57251;52.248;4.812;2023-03-01T00:23:40;36.26;33.87;40.76;;
69608;Laerm;57251;52.248;4.812;2023-03-01T00:23:51;36.63;34.17;39.81;;
69608;Laerm;57251;52.248;4.812;2023-03-01T00:24:01;36.90;34.00;39.93;;
69608;Laerm;57251;52.248;4.812;2023-03-01T00:24:12;36.28;33.14;40.00;;
69608;Laerm;57251;52.248;4.812;2023-03-01T00:24:22;37.11;33.33;41.59;;
69608;Laerm;57251;52.248;4.812;2023-03-01T00:24:33;37.62;34.98;41.07;;
69608;Laerm;57251;52.248;4.812;2023-03-01T00:24:43;37.43;33.98;42.01;;
69608;Laerm;57251;52.248;4.812;2023-03-01T00:24:53;38.24;35.67;41.00;;
69608;Laerm;57251;52.248;4.812;2023-03-01T00:25:04;38.85;36.07;42.03;;
69608;Laerm;57251;52.248;4.812;2023-03-01T00:25:14;39.39;36.52;42.11;;
69608;Laerm;57251;52.248;4.812;2023-03-01T00:25:24;38.56;34.83;40.65;;
69608;Laerm;57251;52.248;4.812;2023-03-01T00:25:40;37.47;34.63;40.19;;
69608;Laerm;57251;52.248;4.812;2023-03-01T00:25:51;36.80;34.04;39.07;;
69608;Laerm;57251;52.248;4.812;2023-03-01T00:26:02;38.53;34.54;42.72;;
69608;Laerm;57251;52.248;4.812;2023-03-01T00:26:12;40.63;34.04;47.91;;
69608;Laerm;57251;52.248;4.812;2023-03-01T00:26:24;38.12;35.48;42.11;;
69608;Laerm;57251;52.248;4.812;2023-03-01T00:26:35;36.61;34.41;39.36;;
69608;Laerm;57251;52.248;4.812;2023-03-01T00:26:45;38.74;34.62;43.85;;
69608;Laerm;57251;52.248;4.812;2023-03-01T00:26:56;36.55;33.52;39.38;;
69608;Laerm;57251;52.248;4.812;2023-03-01T00:27:06;35.87;33.77;39.43;;
69608;Laerm;57251;52.248;4.812;2023-03-01T00:27:17;35.90;33.28;38.38;;
69608;Laerm;57251;52.248;4.812;2023-03-01T00:27:27;35.72;33.46;38.37;;
69608;Laerm;57251;52.248;4.812;2023-03-01T00:27:38;35.38;32.76;37.88;;
69608;Laerm;57251;52.248;4.812;2023-03-01T00:27:48;36.09;32.82;39.83;;
69608;Laerm;57251;52.248;4.812;2023-03-01T00:27:59;35.30;33.02;37.45;;
69608;Laerm;57251;52.248;4.812;2023-03-01T00:28:09;34.71;32.85;37.19;;
69608;Laerm;57251;52.248;4.812;2023-03-01T00:28:20;34.40;32.56;37.38;;
69608;Laerm;57251;52.248;4.812;2023-03-01T00:28:31;34.34;32.30;36.49;;
69608;Laerm;57251;52.248;4.812;2023-03-01T00:28:41;34.71;32.80;36.58;;
69608;Laerm;57251;52.248;4.812;2023-03-01T00:28:52;34.85;32.75;37.32;;
69608;Laerm;57251;52.248;4.812;2023-03-01T00:29:02;34.65;32.55;37.70;;
69608;Laerm;57251;52.248;4.812;2023-03-01T00:29:13;35.73;33.37;39.61;;
69608;Laerm;57251;52.248;4.812;2023-03-01T00:29:23;35.29;33.58;37.65;;
69608;Laerm;57251;52.248;4.812;2023-03-01T00:29:34;37.72;34.06;41.22;;
69608;Laerm;57251;52.248;4.812;2023-03-01T00:29:44;40.00;34.66;46.28;;
69608;Laerm;57251;52.248;4.812;2023-03-01T00:29:54;36.58;34.04;39.77;;
69608;Laerm;57251;52.248;4.812;2023-03-01T00:30:05;36.89;33.81;41.29;;
69608;Laerm;57251;52.248;4.812;2023-03-01T00:30:16;38.32;33.12;45.23;;
69608;Laerm;57251;52.248;4.812;2023-03-01T00:30:26;36.30;33.12;42.57;;
69608;Laerm;57251;52.248;4.812;2023-03-01T00:30:36;34.90;32.48;38.74;;
69608;Laerm;57251;52.248;4.812;2023-03-01T00:30:47;36.33;33.76;41.40;;
69608;Laerm;57251;52.248;4.812;2023-03-01T00:31:02;35.04;32.30;38.98;;
69608;Laerm;57251;52.248;4.812;2023-03-01T00:31:17;36.80;34.25;45.66;;
69608;Laerm;57251;52.248;4.812;2023-03-01T00:31:31;35.40;32.86;38.32;;
69608;Laerm;57251;52.248;4.812;2023-03-01T00:31:41;35.82;32.71;39.14;;
69608;Laerm;57251;52.248;4.812;2023-03-01T00:31:51;34.50;32.54;37.68;;
69608;Laerm;57251;52.248;4.812;2023-03-01T00:32:01;34.41;31.88;40.01;;
69608;Laerm;57251;52.248;4.812;2023-03-01T00:32:12;33.26;31.84;35.79;;
69608;Laerm;57251;52.248;4.812;2023-03-01T00:32:22;33.42;31.39;35.59;;
69608;Laerm;57251;52.248;4.812;2023-03-01T00:32:32;34.30;32.13;36.78;;
69608;Laerm;57251;52.248;4.812;2023-03-01T00:32:43;34.85;32.09;37.05;;
69608;Laerm;57251;52.248;4.812;2023-03-01T00:32:53;35.26;33.05;38.17;;
69608;Laerm;57251;52.248;4.812;2023-03-01T00:33:03;34.65;32.83;36.34;;
69608;Laerm;57251;52.248;4.812;2023-03-01T00:33:14;38.48;32.71;50.06;;
69608;Laerm;57251;52.248;4.812;2023-03-01T00:33:24;35.22;33.59;38.56;;
69608;Laerm;57251;52.248;4.812;2023-03-01T00:33:35;36.06;32.94;40.08;;
69608;Laerm;57251;52.248;4.812;2023-03-01T00:33:45;35.46;33.34;39.36;;
69608;Laerm;57251;52.248;4.812;2023-03-01T00:33:56;34.63;32.90;36.83;;
69608;Laerm;57251;52.248;4.812;2023-03-01T00:34:07;36.20;32.50;45.07;;
69608;Laerm;57251;52.248;4.812;2023-03-01T00:34:17;41.11;33.37;52.40;;
69608;Laerm;57251;52.248;4.812;2023-03-01T00:34:28;37.31;34.25;41.45;;
69608;Laerm;57251;52.248;4.812;2023-03-01T00:34:41;37.06;33.83;41.31;;
69608;Laerm;57251;52.248;4.812;2023-03-01T00:34:51;35.27;32.41;37.31;;
69608;Laerm;57251;52.248;4.812;2023-03-01T00:35:04;36.47;34.17;39.26;;
69608;Laerm;57251;52.248;4.812;2023-03-01T00:35:15;35.51;33.46;39.86;;
69608;Laerm;57251;52.248;4.812;2023-03-01T00:35:26;35.35;32.78;37.75;;
69608;Laerm;57251;52.248;4.812;2023-03-01T00:35:36;35.03;33.23;37.80;;
69608;Laerm;57251;52.248;4.812;2023-03-01T00:35:47;35.25;32.63;42.06;;
69608;Laerm;57251;52.248;4.812;2023-03-01T00:36:00;34.62;32.88;37.17;;
69608;Laerm;57251;52.248;4.812;2023-03-01T00:36:12;35.42;32.65;38.86;;
69608;Laerm;57251;52.248;4.812;2023-03-01T00:36:24;34.44;32.43;36.88;;
69608;Laerm;57251;52.248;4.812;2023-03-01T00:36:35;34.97;32.96;38.22;;
69608;Laerm;57251;52.248;4.812;2023-03-01T00:36:46;33.74;31.88;35.48;;
69608;Laerm;57251;52.248;4.812;2023-03-01T00:36:56;33.44;32.09;36.66;;
69608;Laerm;57251;52.248;4.812;2023-03-01T00:37:14;33.72;32.13;35.44;;
69608;Laerm;57251;52.248;4.812;2023-03-01T00:37:25;33.38;31.75;39.44;;
69608;Laerm;57251;52.248;4.812;2023-03-01T00:37:35;33.81;31.44;39.21;;
69608;Laerm;57251;52.248;4.812;2023-03-01T00:37:45;33.33;31.92;34.59;;
69608;Laerm;57251;52.248;4.812;2023-03-01T00:37:56;33.11;31.67;35.50;;
69608;Laerm;57251;52.248;4.812;2023-03-01T00:38:08;33.73;31.98;37.77;;
69608;Laerm;57251;52.248;4.812;2023-03-01T00:38:18;33.71;32.19;37.39;;
69608;Laerm;57251;52.248;4.812;2023-03-01T00:38:29;33.25;31.72;34.95;;
69608;Laerm;57251;52.248;4.812;2023-03-01T00:38:40;33.33;32.13;35.55;;
69608;Laerm;57251;52.248;4.812;2023-03-01T00:38:51;33.22;31.82;34.83;;
69608;Laerm;57251;52.248;4.812;2023-03-01T00:39:02;33.26;31.71;35.80;;
69608;Laerm;57251;52.248;4.812;2023-03-01T00:39:13;33.19;31.65;35.98;;
69608;Laerm;57251;52.248;4.812;2023-03-01T00:39:24;33.42;30.78;35.18;;
69608;Laerm;57251;52.248;4.812;2023-03-01T00:39:34;33.98;31.90;36.33;;
69608;Laerm;57251;52.248;4.812;2023-03-01T00:39:44;33.44;32.13;34.87;;
69608;Laerm;57251;52.248;4.812;2023-03-01T00:39:55;34.66;31.71;40.33;;
69608;Laerm;57251;52.248;4.812;2023-03-01T00:40:05;33.58;31.62;36.30;;
69608;Laerm;57251;52.248;4.812;2023-03-01T00:40:16;34.32;32.27;37.92;;
69608;Laerm;57251;52.248;4.812;2023-03-01T00:40:27;34.12;31.95;38.84;;
69608;Laerm;57251;52.248;4.812;2023-03-01T00:40:37;35.10;31.88;38.83;;
69608;Laerm;57251;52.248;4.812;2023-03-01T00:40:48;34.03;32.46;36.06;;
69608;Laerm;57251;52.248;4.812;2023-03-01T00:41:04;34.16;32.35;37.25;;
69608;Laerm;57251;52.248;4.812;2023-03-01T00:41:16;34.36;31.98;36.89;;
69608;Laerm;57251;52.248;4.812;2023-03-01T00:41:27;34.13;31.90;36.13;;
69608;Laerm;57251;52.248;4.812;2023-03-01T00:41:37;35.14;32.71;50.37;;
69608;Laerm;57251;52.248;4.812;2023-03-01T00:41:48;34.58;32.64;36.19;;
69608;Laerm;57251;52.248;4.812;2023-03-01T00:41:59;34.92;33.19;36.32;;
69608;Laerm;57251;52.248;4.812;2023-03-01T00:42:09;35.25;33.21;36.92;;
69608;Laerm;57251;52.248;4.812;2023-03-01T00:42:19;35.08;32.74;38.05;;
69608;Laerm;57251;52.248;4.812;2023-03-01T00:42:30;34.76;32.94;38.30;;
69608;Laerm;57251;52.248;4.812;2023-03-01T00:42:40;34.84;33.03;37.89;;
69608;Laerm;57251;52.248;4.812;2023-03-01T00:42:51;34.75;32.96;36.64;;
69608;Laerm;57251;52.248;4.812;2023-03-01T00:43:01;35.49;33.64;40.08;;
69608;Laerm;57251;52.248;4.812;2023-03-01T00:43:12;36.43;33.34;39.92;;
69608;Laerm;57251;52.248;4.812;2023-03-01T00:43:22;36.30;33.72;50.62;;
69608;Laerm;57251;52.248;4.812;2023-03-01T00:43:33;34.48;32.69;38.61;;
69608;Laerm;57251;52.248;4.812;2023-03-01T00:43:46;35.37;33.00;42.78;;
69608;Laerm;57251;52.248;4.812;2023-03-01T00:43:56;34.53;32.76;38.20;;
69608;Laerm;57251;52.248;4.812;2023-03-01T00:44:10;34.64;32.39;36.93;;
69608;Laerm;57251;52.248;4.812;2023-03-01T00:44:20;34.70;32.74;36.26;;
69608;Laerm;57251;52.248;4.812;2023-03-01T00:44:30;34.95;32.94;37.53;;
69608;Laerm;57251;52.248;4.812;2023-03-01T00:44:41;35.84;33.50;38.22;;
69608;Laerm;57251;52.248;4.812;2023-03-01T00:44:51;36.12;34.11;38.39;;
69608;Laerm;57251;52.248;4.812;2023-03-01T00:45:01;36.04;33.20;38.80;;
69608;Laerm;57251;52.248;4.812;2023-03-01T00:45:12;35.05;33.66;37.24;;
69608;Laerm;57251;52.248;4.812;2023-03-01T00:45:23;35.52;33.92;37.77;;
69608;Laerm;57251;52.248;4.812;2023-03-01T00:45:36;35.85;33.51;40.58;;
69608;Laerm;57251;52.248;4.812;2023-03-01T00:45:46;36.01;34.01;41.03;;
69608;Laerm;57251;52.248;4.812;2023-03-01T00:46:00;35.99;33.96;40.00;;
69608;Laerm;57251;52.248;4.812;2023-03-01T00:46:11;35.48;33.40;42.55;;
69608;Laerm;57251;52.248;4.812;2023-03-01T00:46:24;35.53;33.10;39.70;;
69608;Laerm;57251;52.248;4.812;2023-03-01T00:46:34;34.26;32.42;40.39;;
69608;Laerm;57251;52.248;4.812;2023-03-01T00:46:44;35.49;33.59;37.89;;
69608;Laerm;57251;52.248;4.812;2023-03-01T00:46:55;37.90;35.61;40.63;;
69608;Laerm;57251;52.248;4.812;2023-03-01T00:47:05;36.83;34.24;40.37;;
69608;Laerm;57251;52.248;4.812;2023-03-01T00:47:15;37.16;34.50;40.43;;
69608;Laerm;57251;52.248;4.812;2023-03-01T00:47:28;36.81;34.25;39.22;;
69608;Laerm;57251;52.248;4.812;2023-03-01T00:47:38;36.70;34.43;39.33;;
69608;Laerm;57251;52.248;4.812;2023-03-01T00:47:49;37.07;34.81;39.50;;
69608;Laerm;57251;52.248;4.812;2023-03-01T00:48:00;37.69;34.15;41.38;;
69608;Laerm;57251;52.248;4.812;2023-03-01T00:48:10;36.31;33.81;38.20;;
69608;Laerm;57251;52.248;4.812;2023-03-01T00:48:20;37.20;34.66;39.88;;
69608;Laerm;57251;52.248;4.812;2023-03-01T00:48:33;40.34;36.89;43.47;;
69608;Laerm;57251;52.248;4.812;2023-03-01T00:48:44;39.61;36.09;45.09;;
69608;Laerm;57251;52.248;4.812;2023-03-01T00:48:55;39.25;36.26;43.59;;
69608;Laerm;57251;52.248;4.812;2023-03-01T00:49:05;37.32;35.35;41.08;;
69608;Laerm;57251;52.248;4.812;2023-03-01T00:49:19;39.24;35.06;44.34;;
69608;Laerm;57251;52.248;4.812;2023-03-01T00:49:29;38.85;34.25;42.90;;
69608;Laerm;57251;52.248;4.812;2023-03-01T00:49:40;35.54;33.91;37.46;;
69608;Laerm;57251;52.248;4.812;2023-03-01T00:49:50;35.39;33.51;37.54;;
69608;Laerm;57251;52.248;4.812;2023-03-01T00:50:00;36.34;34.09;38.84;;
69608;Laerm;57251;52.248;4.812;2023-03-01T00:50:11;36.23;32.86;46.49;;
69608;Laerm;57251;52.248;4.812;2023-03-01T00:50:21;34.56;32.42;36.89;;
69608;Laerm;57251;52.248;4.812;2023-03-01T00:50:32;34.19;32.17;36.26;;
69608;Laerm;57251;52.248;4.812;2023-03-01T00:50:42;33.81;31.94;36.23;;
69608;Laerm;57251;52.248;4.812;2023-03-01T00:50:53;34.48;32.56;39.10;;
69608;Laerm;57251;52.248;4.812;2023-03-01T00:51:13;34.20;32.42;36.61;;
69608;Laerm;57251;52.248;4.812;2023-03-01T00:51:25;33.92;32.29;36.51;;
69608;Laerm;57251;52.248;4.812;2023-03-01T00:51:36;34.39;32.25;49.78;;
69608;Laerm;57251;52.248;4.812;2023-03-01T00:51:46;34.15;32.49;36.13;;
69608;Laerm;57251;52.248;4.812;2023-03-01T00:51:56;35.51;33.11;37.01;;
69608;Laerm;57251;52.248;4.812;2023-03-01T00:52:07;36.27;34.49;39.58;;
69608;Laerm;57251;52.248;4.812;2023-03-01T00:52:17;35.19;33.28;37.50;;
69608;Laerm;57251;52.248;4.812;2023-03-01T00:52:28;36.29;34.34;38.46;;
69608;Laerm;57251;52.248;4.812;2023-03-01T00:52:38;36.77;33.43;41.36;;
69608;Laerm;57251;52.248;4.812;2023-03-01T00:52:52;36.78;33.06;41.93;;
69608;Laerm;57251;52.248;4.812;2023-03-01T00:53:02;34.44;32.18;37.00;;
69608;Laerm;57251;52.248;4.812;2023-03-01T00:53:13;34.76;33.20;38.05;;
69608;Laerm;57251;52.248;4.812;2023-03-01T00:53:23;36.58;33.50;40.78;;
69608;Laerm;57251;52.248;4.812;2023-03-01T00:53:33;35.99;32.62;38.55;;
69608;Laerm;57251;52.248;4.812;2023-03-01T00:53:44;34.96;33.26;37.08;;
69608;Laerm;57251;52.248;4.812;2023-03-01T00:53:56;35.15;33.28;37.63;;
69608;Laerm;57251;52.248;4.812;2023-03-01T00:54:09;35.24;33.51;37.62;;
69608;Laerm;57251;52.248;4.812;2023-03-01T00:54:19;36.78;33.78;39.17;;
69608;Laerm;57251;52.248;4.812;2023-03-01T00:54:30;37.21;34.34;43.78;;
69608;Laerm;57251;52.248;4.812;2023-03-01T00:54:40;35.49;32.50;41.35;;
69608;Laerm;57251;52.248;4.812;2023-03-01T00:54:52;35.17;33.36;37.64;;
69608;Laerm;57251;52.248;4.812;2023-03-01T00:55:03;35.86;33.23;39.42;;
69608;Laerm;57251;52.248;4.812;2023-03-01T00:55:13;35.33;33.32;36.88;;
69608;Laerm;57251;52.248;4.812;2023-03-01T00:55:24;36.09;33.58;41.59;;
69608;Laerm;57251;52.248;4.812;2023-03-01T00:55:35;34.45;32.96;36.25;;
69608;Laerm;57251;52.248;4.812;2023-03-01T00:55:46;35.48;32.97;37.64;;
69608;Laerm;57251;52.248;4.812;2023-03-01T00:55:57;36.27;33.13;38.41;;
69608;Laerm;57251;52.248;4.812;2023-03-01T00:56:08;34.10;32.58;36.36;;
69608;Laerm;57251;52.248;4.812;2023-03-01T00:56:19;35.01;32.83;38.36;;
69608;Laerm;57251;52.248;4.812;2023-03-01T00:56:29;36.07;33.12;40.38;;
69608;Laerm;57251;52.248;4.812;2023-03-01T00:56:40;35.70;32.99;39.12;;
69608;Laerm;57251;52.248;4.812;2023-03-01T00:56:50;34.55;32.14;38.37;;
69608;Laerm;57251;52.248;4.812;2023-03-01T00:57:01;34.63;32.96;37.66;;
69608;Laerm;57251;52.248;4.812;2023-03-01T00:57:11;34.88;32.87;37.41;;
69608;Laerm;57251;52.248;4.812;2023-03-01T00:57:21;35.32;33.18;38.83;;
69608;Laerm;57251;52.248;4.812;2023-03-01T00:57:31;34.27;32.41;37.64;;
69608;Laerm;57251;52.248;4.812;2023-03-01T00:57:42;35.42;32.63;37.51;;
69608;Laerm;57251;52.248;4.812;2023-03-01T00:57:52;34.92;33.12;36.84;;
69608;Laerm;57251;52.248;4.812;2023-03-01T00:58:03;35.41;33.33;38.52;;
69608;Laerm;57251;52.248;4.812;2023-03-01T00:58:13;36.52;34.41;40.51;;
69608;Laerm;57251;52.248;4.812;2023-03-01T00:58:24;35.45;33.48;38.99;;
69608;Laerm;57251;52.248;4.812;2023-03-01T00:58:34;34.55;32.37;37.88;;
69608;Laerm;57251;52.248;4.812;2023-03-01T00:58:45;34.92;32.43;37.65;;
69608;Laerm;57251;52.248;4.812;2023-03-01T00:58:55;33.70;31.74;35.63;;
69608;Laerm;57251;52.248;4.812;2023-03-01T00:59:06;34.14;32.45;37.13;;
69608;Laerm;57251;52.248;4.812;2023-03-01T00:59:16;35.76;33.19;43.25;;
69608;Laerm;57251;52.248;4.812;2023-03-01T00:59:26;34.86;32.16;40.60;;
69608;Laerm;57251;52.248;4.812;2023-03-01T00:59:37;34.18;31.89;38.06;;
69608;Laerm;57251;52.248;4.812;2023-03-01T00:59:47;33.80;32.34;35.64;;
69608;Laerm;57251;52.248;4.812;2023-03-01T00:59:57;34.22;31.94;36.13;;
69608;Laerm;57251;52.248;4.812;2023-03-01T01:00:08;33.96;32.74;35.86;;
69608;Laerm;57251;52.248;4.812;2023-03-01T01:00:19;35.07;33.00;37.79;;
69608;Laerm;57251;52.248;4.812;2023-03-01T01:00:30;35.85;33.29;39.03;;
69608;Laerm;57251;52.248;4.812;2023-03-01T01:00:40;35.42;32.50;38.35;;
69608;Laerm;57251;52.248;4.812;2023-03-01T01:00:51;34.58;32.10;36.68;;
69608;Laerm;57251;52.248;4.812;2023-03-01T01:01:35;33.83;32.16;35.79;;
69608;Laerm;57251;52.248;4.812;2023-03-01T01:01:42;34.86;32.18;42.23;;
69608;Laerm;57251;52.248;4.812;2023-03-01T01:01:52;34.27;32.02;36.66;;